Flight Track Log - Related Links

Times and Time Zones

All times are in EDT time to prevent confusion due to time zone crossing. See the FLG3872 flight status page for this flight to view local times or setup timezone preferences in your user account.

Time Position Orientation Groundspeed Altitude Reporting Facility
EDT Latitude Longitude Course Direction KTS MPH feet Rate Location/Type
Wed 08:13:12 PM 42.2017 -83.3583 208° Southwest 156 180 1,200  Level Cleveland Center
Wed 08:14:07 PM 42.1939 -83.4139 259° West 210 242 2,600 1,397 Climbing Cleveland Center
Wed 08:15:08 PM 42.2000 -83.5011 275° West 250 288 3,900 829 Climbing Cleveland Center
Wed 08:16:00 PM 41.9943 -83.6874 211° Southwest  Level Estimated
Wed 08:16:10 PM 42.1811 -83.5956 255° West 271 312 4,300  Level Cleveland Center
Wed 08:17:00 PM 41.9396 -83.7705 217° Southwest  Level Estimated
Wed 08:18:00 PM 41.8849 -83.8535 208° Southwest  Level Estimated
Wed 08:18:00 PM 42.0393 -83.7889 225° Southwest  Level Estimated
Wed 08:25:00 PM 41.4947 -84.5194 225° Southwest  Level Estimated
Wed 08:26:00 PM 41.4166 -84.6227 225° Southwest  Level Estimated
Wed 08:27:00 PM 41.3383 -84.7258 225° Southwest  Level Estimated
Wed 08:28:00 PM 41.2600 -84.8287 225° Southwest  Level Estimated
Wed 08:29:00 PM 41.1815 -84.9313 225° Southwest  Level Estimated
Wed 08:29:01 PM 41.3814 -84.6669 49° Northeast 372 428 9,900  Level Chicago Center
Wed 08:30:00 PM 41.1030 -85.0336 225° Southwest  Level Estimated
Wed 08:30:03 PM 41.3069 -84.7636 224° Southwest 373 429 9,900  Level Chicago Center
Wed 08:31:00 PM 41.0244 -85.1357 224° Southwest  Level Estimated
Wed 08:31:05 PM 41.2203 -84.8828 226° Southwest 372 428 9,900  Level Chicago Center
Wed 08:32:00 PM 40.9785 -85.1952 224° Southwest  Level Estimated
Wed 08:32:07 PM 41.1667 -84.9939 237° Southwest 355 409 9,900  Level Chicago Center
Wed 08:33:00 PM 40.9785 -85.1952 49° Northeast  Level Estimated
Wed 08:33:09 PM 41.1358 -85.0861 246° West 285 328 7,500  Level Chicago Center
Wed 08:34:00 PM 40.9785 -85.1952 49° Northeast  Level Estimated
Wed 08:34:11 PM 41.1219 -85.1856 260° West 283 326 4,900  Level Chicago Center
Wed 08:35:13 PM 41.0836 -85.2539 233° Southwest 257 296 3,400 -1,452 Descending Chicago Center

Login

Don't have an account? Register now (free) for customized features, flight alerts, and more!